sensor_id;sensor_type;location;lat;lon;timestamp;P1;durP1;ratioP1;P2;durP2;ratioP2
32236;SDS011;18726;44.732;10.550;2022-12-18T00:00:40;32.75;;;28.60;;
32236;SDS011;18726;44.732;10.550;2022-12-18T00:03:45;45.38;;;37.55;;
32236;SDS011;18726;44.732;10.550;2022-12-18T00:06:51;35.78;;;31.70;;
32236;SDS011;18726;44.732;10.550;2022-12-18T00:09:55;49.08;;;38.10;;
32236;SDS011;18726;44.732;10.550;2022-12-18T00:12:59;41.65;;;35.88;;
32236;SDS011;18726;44.732;10.550;2022-12-18T00:16:04;47.15;;;36.05;;
32236;SDS011;18726;44.732;10.550;2022-12-18T00:19:09;41.42;;;36.25;;
32236;SDS011;18726;44.732;10.550;2022-12-18T00:22:13;38.88;;;31.08;;
32236;SDS011;18726;44.732;10.550;2022-12-18T00:25:21;31.63;;;28.27;;
32236;SDS011;18726;44.732;10.550;2022-12-18T00:28:26;40.17;;;30.23;;
32236;SDS011;18726;44.732;10.550;2022-12-18T00:31:30;34.60;;;28.80;;
32236;SDS011;18726;44.732;10.550;2022-12-18T00:34:34;39.45;;;31.73;;
32236;SDS011;18726;44.732;10.550;2022-12-18T00:37:38;42.78;;;29.35;;
32236;SDS011;18726;44.732;10.550;2022-12-18T00:40:41;31.23;;;27.85;;
32236;SDS011;18726;44.732;10.550;2022-12-18T00:43:45;35.65;;;29.67;;
32236;SDS011;18726;44.732;10.550;2022-12-18T00:46:49;37.22;;;30.88;;
32236;SDS011;18726;44.732;10.550;2022-12-18T00:49:53;34.45;;;29.40;;
32236;SDS011;18726;44.732;10.550;2022-12-18T00:52:57;35.15;;;29.90;;
32236;SDS011;18726;44.732;10.550;2022-12-18T00:56:04;37.88;;;27.77;;
32236;SDS011;18726;44.732;10.550;2022-12-18T00:59:08;39.28;;;33.55;;
32236;SDS011;18726;44.732;10.550;2022-12-18T01:02:12;33.35;;;28.20;;
32236;SDS011;18726;44.732;10.550;2022-12-18T01:05:15;31.42;;;26.13;;
32236;SDS011;18726;44.732;10.550;2022-12-18T01:08:19;33.78;;;28.63;;
32236;SDS011;18726;44.732;10.550;2022-12-18T01:11:23;36.05;;;30.98;;
32236;SDS011;18726;44.732;10.550;2022-12-18T01:14:31;38.83;;;33.67;;
32236;SDS011;18726;44.732;10.550;2022-12-18T01:17:36;43.67;;;36.63;;
32236;SDS011;18726;44.732;10.550;2022-12-18T01:20:40;35.20;;;29.77;;
32236;SDS011;18726;44.732;10.550;2022-12-18T01:23:44;33.88;;;28.20;;
32236;SDS011;18726;44.732;10.550;2022-12-18T01:26:48;31.58;;;28.17;;
32236;SDS011;18726;44.732;10.550;2022-12-18T01:29:53;30.77;;;25.38;;
32236;SDS011;18726;44.732;10.550;2022-12-18T01:32:58;33.15;;;27.77;;
32236;SDS011;18726;44.732;10.550;2022-12-18T01:36:02;28.63;;;25.13;;
32236;SDS011;18726;44.732;10.550;2022-12-18T01:39:06;28.55;;;25.55;;
32236;SDS011;18726;44.732;10.550;2022-12-18T01:42:14;31.10;;;26.48;;
32236;SDS011;18726;44.732;10.550;2022-12-18T01:45:24;27.10;;;22.70;;
32236;SDS011;18726;44.732;10.550;2022-12-18T01:48:30;48.17;;;29.90;;
32236;SDS011;18726;44.732;10.550;2022-12-18T01:51:34;27.45;;;23.98;;
32236;SDS011;18726;44.732;10.550;2022-12-18T01:54:37;38.83;;;28.92;;
32236;SDS011;18726;44.732;10.550;2022-12-18T01:57:42;34.00;;;28.85;;
32236;SDS011;18726;44.732;10.550;2022-12-18T02:00:46;32.78;;;25.63;;
32236;SDS011;18726;44.732;10.550;2022-12-18T02:03:50;25.13;;;22.05;;
32236;SDS011;18726;44.732;10.550;2022-12-18T02:07:03;25.15;;;22.42;;
32236;SDS011;18726;44.732;10.550;2022-12-18T02:10:24;23.45;;;18.17;;
32236;SDS011;18726;44.732;10.550;2022-12-18T02:13:32;17.13;;;15.43;;
32236;SDS011;18726;44.732;10.550;2022-12-18T02:16:52;15.85;;;14.27;;
32236;SDS011;18726;44.732;10.550;2022-12-18T02:26:49;15.23;;;13.63;;
32236;SDS011;18726;44.732;10.550;2022-12-18T02:29:59;14.77;;;13.25;;
32236;SDS011;18726;44.732;10.550;2022-12-18T02:33:06;13.57;;;12.32;;
32236;SDS011;18726;44.732;10.550;2022-12-18T02:36:12;13.57;;;12.27;;
32236;SDS011;18726;44.732;10.550;2022-12-18T02:39:19;15.40;;;13.20;;
32236;SDS011;18726;44.732;10.550;2022-12-18T02:42:43;13.13;;;12.00;;
32236;SDS011;18726;44.732;10.550;2022-12-18T02:45:56;13.40;;;11.45;;
32236;SDS011;18726;44.732;10.550;2022-12-18T02:49:25;12.65;;;11.45;;
32236;SDS011;18726;44.732;10.550;2022-12-18T02:59:47;15.13;;;12.70;;
32236;SDS011;18726;44.732;10.550;2022-12-18T03:06:32;16.63;;;13.95;;
32236;SDS011;18726;44.732;10.550;2022-12-18T03:09:42;25.08;;;17.25;;
32236;SDS011;18726;44.732;10.550;2022-12-18T03:12:52;19.17;;;14.50;;
32236;SDS011;18726;44.732;10.550;2022-12-18T03:16:03;16.60;;;14.93;;
32236;SDS011;18726;44.732;10.550;2022-12-18T03:19:11;14.88;;;12.27;;
32236;SDS011;18726;44.732;10.550;2022-12-18T03:22:20;13.82;;;11.45;;
32236;SDS011;18726;44.732;10.550;2022-12-18T03:28:53;14.73;;;11.55;;
32236;SDS011;18726;44.732;10.550;2022-12-18T03:32:21;14.25;;;11.82;;
32236;SDS011;18726;44.732;10.550;2022-12-18T03:35:32;20.95;;;11.98;;
32236;SDS011;18726;44.732;10.550;2022-12-18T03:38:41;12.65;;;11.32;;
32236;SDS011;18726;44.732;10.550;2022-12-18T03:48:41;12.70;;;11.50;;
32236;SDS011;18726;44.732;10.550;2022-12-18T03:51:59;14.43;;;13.05;;
32236;SDS011;18726;44.732;10.550;2022-12-18T03:55:15;17.38;;;15.57;;
32236;SDS011;18726;44.732;10.550;2022-12-18T03:58:32;15.00;;;13.43;;
32236;SDS011;18726;44.732;10.550;2022-12-18T04:01:51;16.08;;;14.15;;
32236;SDS011;18726;44.732;10.550;2022-12-18T04:04:57;18.27;;;16.40;;
32236;SDS011;18726;44.732;10.550;2022-12-18T04:08:05;22.58;;;18.35;;
32236;SDS011;18726;44.732;10.550;2022-12-18T04:11:13;21.77;;;19.33;;
32236;SDS011;18726;44.732;10.550;2022-12-18T04:14:22;23.08;;;20.67;;
32236;SDS011;18726;44.732;10.550;2022-12-18T04:17:33;24.65;;;22.00;;
32236;SDS011;18726;44.732;10.550;2022-12-18T04:20:41;26.33;;;23.08;;
32236;SDS011;18726;44.732;10.550;2022-12-18T04:23:45;27.88;;;24.17;;
32236;SDS011;18726;44.732;10.550;2022-12-18T04:26:50;25.60;;;22.50;;
32236;SDS011;18726;44.732;10.550;2022-12-18T04:29:59;24.05;;;20.27;;
32236;SDS011;18726;44.732;10.550;2022-12-18T04:33:37;28.85;;;23.85;;
32236;SDS011;18726;44.732;10.550;2022-12-18T04:36:34;25.48;;;22.63;;
32236;SDS011;18726;44.732;10.550;2022-12-18T04:39:38;27.67;;;23.10;;
32236;SDS011;18726;44.732;10.550;2022-12-18T04:42:48;27.20;;;24.17;;
32236;SDS011;18726;44.732;10.550;2022-12-18T04:45:52;28.42;;;24.83;;
32236;SDS011;18726;44.732;10.550;2022-12-18T04:48:56;30.95;;;27.08;;
32236;SDS011;18726;44.732;10.550;2022-12-18T04:57:16;33.63;;;25.17;;
32236;SDS011;18726;44.732;10.550;2022-12-18T05:04:38;34.78;;;29.30;;
32236;SDS011;18726;44.732;10.550;2022-12-18T05:07:54;27.60;;;24.75;;
32236;SDS011;18726;44.732;10.550;2022-12-18T05:11:10;35.63;;;28.30;;
32236;SDS011;18726;44.732;10.550;2022-12-18T05:14:17;32.65;;;26.38;;
32236;SDS011;18726;44.732;10.550;2022-12-18T05:17:21;42.10;;;33.30;;
32236;SDS011;18726;44.732;10.550;2022-12-18T05:20:25;34.25;;;28.70;;
32236;SDS011;18726;44.732;10.550;2022-12-18T05:23:29;33.97;;;27.60;;
32236;SDS011;18726;44.732;10.550;2022-12-18T05:26:33;32.95;;;26.25;;
32236;SDS011;18726;44.732;10.550;2022-12-18T05:29:37;35.53;;;27.27;;
32236;SDS011;18726;44.732;10.550;2022-12-18T05:36:00;28.77;;;23.88;;
32236;SDS011;18726;44.732;10.550;2022-12-18T05:39:34;31.90;;;26.25;;
32236;SDS011;18726;44.732;10.550;2022-12-18T05:42:38;37.60;;;29.08;;
32236;SDS011;18726;44.732;10.550;2022-12-18T05:45:46;30.92;;;26.17;;
32236;SDS011;18726;44.732;10.550;2022-12-18T05:48:49;29.23;;;23.40;;
32236;SDS011;18726;44.732;10.550;2022-12-18T05:51:53;33.63;;;25.27;;
32236;SDS011;18726;44.732;10.550;2022-12-18T05:55:03;32.78;;;28.33;;
32236;SDS011;18726;44.732;10.550;2022-12-18T05:58:11;37.83;;;29.45;;
32236;SDS011;18726;44.732;10.550;2022-12-18T06:01:19;32.72;;;27.02;;
32236;SDS011;18726;44.732;10.550;2022-12-18T06:04:29;28.13;;;25.13;;
32236;SDS011;18726;44.732;10.550;2022-12-18T06:07:33;29.58;;;26.25;;
32236;SDS011;18726;44.732;10.550;2022-12-18T06:10:37;30.15;;;24.15;;
32236;SDS011;18726;44.732;10.550;2022-12-18T06:13:40;29.23;;;24.25;;
32236;SDS011;18726;44.732;10.550;2022-12-18T06:16:44;29.23;;;23.92;;
32236;SDS011;18726;44.732;10.550;2022-12-18T06:19:48;23.85;;;20.83;;
32236;SDS011;18726;44.732;10.550;2022-12-18T06:22:52;31.85;;;24.85;;
32236;SDS011;18726;44.732;10.550;2022-12-18T06:25:56;30.65;;;25.15;;
32236;SDS011;18726;44.732;10.550;2022-12-18T06:29:00;27.00;;;24.10;;
32236;SDS011;18726;44.732;10.550;2022-12-18T06:32:04;29.15;;;24.73;;
32236;SDS011;18726;44.732;10.550;2022-12-18T06:35:07;27.40;;;22.98;;
32236;SDS011;18726;44.732;10.550;2022-12-18T06:38:11;26.50;;;22.52;;
32236;SDS011;18726;44.732;10.550;2022-12-18T06:41:16;23.52;;;19.70;;
32236;SDS011;18726;44.732;10.550;2022-12-18T06:44:22;27.20;;;21.40;;
32236;SDS011;18726;44.732;10.550;2022-12-18T06:47:28;28.17;;;23.33;;
32236;SDS011;18726;44.732;10.550;2022-12-18T06:50:34;28.42;;;23.15;;
32236;SDS011;18726;44.732;10.550;2022-12-18T06:53:38;31.77;;;26.70;;
32236;SDS011;18726;44.732;10.550;2022-12-18T06:56:46;29.15;;;23.70;;
32236;SDS011;18726;44.732;10.550;2022-12-18T07:00:00;26.42;;;23.58;;
32236;SDS011;18726;44.732;10.550;2022-12-18T07:03:24;31.90;;;22.83;;
32236;SDS011;18726;44.732;10.550;2022-12-18T07:09:57;25.95;;;20.75;;
32236;SDS011;18726;44.732;10.550;2022-12-18T07:13:15;27.00;;;23.20;;
32236;SDS011;18726;44.732;10.550;2022-12-18T07:16:20;27.08;;;21.95;;
32236;SDS011;18726;44.732;10.550;2022-12-18T07:19:31;25.13;;;21.95;;
32236;SDS011;18726;44.732;10.550;2022-12-18T07:22:38;29.77;;;25.10;;
32236;SDS011;18726;44.732;10.550;2022-12-18T07:25:46;30.50;;;22.98;;
32236;SDS011;18726;44.732;10.550;2022-12-18T07:29:01;27.23;;;24.33;;
32236;SDS011;18726;44.732;10.550;2022-12-18T07:32:05;31.42;;;24.92;;
32236;SDS011;18726;44.732;10.550;2022-12-18T07:35:10;24.75;;;21.30;;
32236;SDS011;18726;44.732;10.550;2022-12-18T07:38:14;26.20;;;21.33;;
32236;SDS011;18726;44.732;10.550;2022-12-18T07:41:19;26.67;;;21.88;;
32236;SDS011;18726;44.732;10.550;2022-12-18T07:44:27;29.92;;;24.40;;
32236;SDS011;18726;44.732;10.550;2022-12-18T07:47:34;23.83;;;21.33;;
32236;SDS011;18726;44.732;10.550;2022-12-18T07:50:51;25.95;;;22.05;;
32236;SDS011;18726;44.732;10.550;2022-12-18T07:54:06;26.33;;;21.90;;
32236;SDS011;18726;44.732;10.550;2022-12-18T07:57:09;23.08;;;20.70;;
32236;SDS011;18726;44.732;10.550;2022-12-18T08:00:21;27.77;;;23.33;;
32236;SDS011;18726;44.732;10.550;2022-12-18T08:10:57;26.33;;;21.65;;
32236;SDS011;18726;44.732;10.550;2022-12-18T08:18:07;28.25;;;21.38;;
32236;SDS011;18726;44.732;10.550;2022-12-18T08:22:30;26.05;;;21.52;;
32236;SDS011;18726;44.732;10.550;2022-12-18T08:25:43;24.15;;;21.60;;
32236;SDS011;18726;44.732;10.550;2022-12-18T08:28:48;27.23;;;22.60;;
32236;SDS011;18726;44.732;10.550;2022-12-18T08:31:52;92.95;;;57.22;;
32236;SDS011;18726;44.732;10.550;2022-12-18T08:34:56;54.40;;;40.20;;
32236;SDS011;18726;44.732;10.550;2022-12-18T08:38:00;35.95;;;29.35;;
32236;SDS011;18726;44.732;10.550;2022-12-18T08:41:07;35.25;;;29.33;;
32236;SDS011;18726;44.732;10.550;2022-12-18T08:44:13;60.78;;;45.75;;
32236;SDS011;18726;44.732;10.550;2022-12-18T08:47:35;169.27;;;93.90;;
32236;SDS011;18726;44.732;10.550;2022-12-18T08:50:40;108.85;;;73.53;;
32236;SDS011;18726;44.732;10.550;2022-12-18T08:53:44;47.22;;;38.20;;
32236;SDS011;18726;44.732;10.550;2022-12-18T08:56:48;34.92;;;30.63;;
32236;SDS011;18726;44.732;10.550;2022-12-18T08:59:53;36.10;;;30.00;;
32236;SDS011;18726;44.732;10.550;2022-12-18T09:02:56;41.53;;;33.58;;
32236;SDS011;18726;44.732;10.550;2022-12-18T09:06:00;40.63;;;32.55;;
32236;SDS011;18726;44.732;10.550;2022-12-18T09:09:05;38.50;;;31.75;;
32236;SDS011;18726;44.732;10.550;2022-12-18T09:12:09;35.13;;;31.33;;
32236;SDS011;18726;44.732;10.550;2022-12-18T09:15:13;39.55;;;30.73;;
32236;SDS011;18726;44.732;10.550;2022-12-18T09:18:17;36.80;;;30.80;;
32236;SDS011;18726;44.732;10.550;2022-12-18T09:21:22;49.20;;;38.22;;
32236;SDS011;18726;44.732;10.550;2022-12-18T09:24:26;37.70;;;33.60;;
32236;SDS011;18726;44.732;10.550;2022-12-18T09:27:31;37.35;;;30.23;;
32236;SDS011;18726;44.732;10.550;2022-12-18T09:30:55;42.42;;;31.58;;
32236;SDS011;18726;44.732;10.550;2022-12-18T09:34:00;34.90;;;29.17;;
32236;SDS011;18726;44.732;10.550;2022-12-18T09:37:04;33.72;;;29.17;;
32236;SDS011;18726;44.732;10.550;2022-12-18T09:40:18;33.58;;;28.52;;
32236;SDS011;18726;44.732;10.550;2022-12-18T09:50:27;38.60;;;30.88;;
32236;SDS011;18726;44.732;10.550;2022-12-18T09:53:35;37.45;;;28.67;;
32236;SDS011;18726;44.732;10.550;2022-12-18T09:56:43;32.83;;;27.00;;
32236;SDS011;18726;44.732;10.550;2022-12-18T09:59:50;36.45;;;27.42;;
32236;SDS011;18726;44.732;10.550;2022-12-18T10:03:11;34.72;;;28.42;;
32236;SDS011;18726;44.732;10.550;2022-12-18T10:09:52;31.48;;;28.13;;
32236;SDS011;18726;44.732;10.550;2022-12-18T10:23:32;37.33;;;28.67;;
32236;SDS011;18726;44.732;10.550;2022-12-18T10:31:04;37.05;;;29.60;;
32236;SDS011;18726;44.732;10.550;2022-12-18T10:43:23;35.10;;;29.95;;
32236;SDS011;18726;44.732;10.550;2022-12-18T10:46:30;34.28;;;28.73;;
32236;SDS011;18726;44.732;10.550;2022-12-18T10:49:34;32.80;;;28.95;;
32236;SDS011;18726;44.732;10.550;2022-12-18T10:52:39;33.45;;;28.63;;
32236;SDS011;18726;44.732;10.550;2022-12-18T10:55:44;32.20;;;28.73;;
32236;SDS011;18726;44.732;10.550;2022-12-18T10:58:57;34.65;;;30.65;;
32236;SDS011;18726;44.732;10.550;2022-12-18T11:02:07;29.90;;;26.67;;
32236;SDS011;18726;44.732;10.550;2022-12-18T11:05:39;31.50;;;25.50;;
32236;SDS011;18726;44.732;10.550;2022-12-18T11:08:43;31.10;;;27.75;;
32236;SDS011;18726;44.732;10.550;2022-12-18T11:12:01;33.72;;;29.00;;
32236;SDS011;18726;44.732;10.550;2022-12-18T11:15:20;33.13;;;27.92;;
32236;SDS011;18726;44.732;10.550;2022-12-18T11:18:34;33.47;;;28.17;;
32236;SDS011;18726;44.732;10.550;2022-12-18T11:21:39;36.05;;;30.67;;
32236;SDS011;18726;44.732;10.550;2022-12-18T11:24:49;33.15;;;29.70;;
32236;SDS011;18726;44.732;10.550;2022-12-18T11:27:58;31.70;;;28.13;;
32236;SDS011;18726;44.732;10.550;2022-12-18T11:31:26;31.92;;;28.27;;
32236;SDS011;18726;44.732;10.550;2022-12-18T11:34:31;38.17;;;29.15;;
32236;SDS011;18726;44.732;10.550;2022-12-18T11:37:35;32.78;;;27.92;;
32236;SDS011;18726;44.732;10.550;2022-12-18T11:40:40;38.25;;;31.13;;
32236;SDS011;18726;44.732;10.550;2022-12-18T11:43:52;111.47;;;79.45;;
32236;SDS011;18726;44.732;10.550;2022-12-18T11:47:03;73.28;;;56.22;;
32236;SDS011;18726;44.732;10.550;2022-12-18T11:53:34;45.83;;;38.05;;
32236;SDS011;18726;44.732;10.550;2022-12-18T11:56:48;40.95;;;33.97;;
32236;SDS011;18726;44.732;10.550;2022-12-18T12:00:18;87.43;;;56.60;;
32236;SDS011;18726;44.732;10.550;2022-12-18T12:10:28;98.70;;;58.38;;
32236;SDS011;18726;44.732;10.550;2022-12-18T12:13:38;56.88;;;37.83;;
32236;SDS011;18726;44.732;10.550;2022-12-18T12:17:21;98.20;;;57.90;;
32236;SDS011;18726;44.732;10.550;2022-12-18T12:20:50;114.28;;;62.85;;
32236;SDS011;18726;44.732;10.550;2022-12-18T12:38:44;75.20;;;43.35;;
32236;SDS011;18726;44.732;10.550;2022-12-18T12:46:11;112.65;;;55.78;;
32236;SDS011;18726;44.732;10.550;2022-12-18T12:53:45;206.57;;;73.57;;
32236;SDS011;18726;44.732;10.550;2022-12-18T13:00:20;397.85;;;138.23;;
32236;SDS011;18726;44.732;10.550;2022-12-18T13:03:46;132.18;;;56.50;;
32236;SDS011;18726;44.732;10.550;2022-12-18T13:10:28;53.33;;;37.47;;
32236;SDS011;18726;44.732;10.550;2022-12-18T13:20:32;36.60;;;28.83;;
32236;SDS011;18726;44.732;10.550;2022-12-18T13:23:39;37.10;;;31.17;;
32236;SDS011;18726;44.732;10.550;2022-12-18T13:26:43;40.95;;;30.92;;
32236;SDS011;18726;44.732;10.550;2022-12-18T13:29:47;51.72;;;32.00;;
32236;SDS011;18726;44.732;10.550;2022-12-18T13:33:12;34.30;;;28.92;;
32236;SDS011;18726;44.732;10.550;2022-12-18T13:36:27;44.88;;;31.38;;
32236;SDS011;18726;44.732;10.550;2022-12-18T13:39:32;51.10;;;41.58;;
32236;SDS011;18726;44.732;10.550;2022-12-18T13:42:38;45.63;;;37.08;;
32236;SDS011;18726;44.732;10.550;2022-12-18T13:46:05;43.63;;;34.38;;
32236;SDS011;18726;44.732;10.550;2022-12-18T13:49:24;45.75;;;36.85;;
32236;SDS011;18726;44.732;10.550;2022-12-18T13:52:36;42.13;;;34.30;;
32236;SDS011;18726;44.732;10.550;2022-12-18T13:55:43;40.10;;;33.13;;
32236;SDS011;18726;44.732;10.550;2022-12-18T14:02:15;44.83;;;35.47;;
32236;SDS011;18726;44.732;10.550;2022-12-18T14:05:24;60.55;;;43.00;;
32236;SDS011;18726;44.732;10.550;2022-12-18T14:08:39;48.50;;;37.22;;
32236;SDS011;18726;44.732;10.550;2022-12-18T14:11:46;50.95;;;38.45;;
32236;SDS011;18726;44.732;10.550;2022-12-18T14:14:52;75.95;;;61.67;;
32236;SDS011;18726;44.732;10.550;2022-12-18T14:21:30;48.13;;;37.05;;
32236;SDS011;18726;44.732;10.550;2022-12-18T14:24:37;46.10;;;33.95;;
32236;SDS011;18726;44.732;10.550;2022-12-18T14:27:45;45.03;;;33.83;;
32236;SDS011;18726;44.732;10.550;2022-12-18T14:31:16;41.72;;;31.00;;
32236;SDS011;18726;44.732;10.550;2022-12-18T14:34:25;41.88;;;32.45;;
32236;SDS011;18726;44.732;10.550;2022-12-18T14:37:30;43.67;;;33.47;;
32236;SDS011;18726;44.732;10.550;2022-12-18T14:40:34;45.60;;;34.10;;
32236;SDS011;18726;44.732;10.550;2022-12-18T14:43:39;47.05;;;34.58;;
32236;SDS011;18726;44.732;10.550;2022-12-18T14:46:45;39.30;;;31.08;;
32236;SDS011;18726;44.732;10.550;2022-12-18T14:49:50;39.50;;;31.90;;
32236;SDS011;18726;44.732;10.550;2022-12-18T14:52:54;51.63;;;36.28;;
32236;SDS011;18726;44.732;10.550;2022-12-18T14:55:58;42.10;;;32.85;;
32236;SDS011;18726;44.732;10.550;2022-12-18T15:02:23;40.17;;;31.23;;
32236;SDS011;18726;44.732;10.550;2022-12-18T15:05:30;43.78;;;31.90;;
32236;SDS011;18726;44.732;10.550;2022-12-18T15:08:35;38.58;;;31.45;;
32236;SDS011;18726;44.732;10.550;2022-12-18T15:14:43;44.03;;;32.38;;
32236;SDS011;18726;44.732;10.550;2022-12-18T15:17:47;42.80;;;32.78;;
32236;SDS011;18726;44.732;10.550;2022-12-18T15:20:54;44.40;;;34.15;;
32236;SDS011;18726;44.732;10.550;2022-12-18T15:24:00;38.63;;;29.02;;
32236;SDS011;18726;44.732;10.550;2022-12-18T15:27:04;41.63;;;30.17;;
32236;SDS011;18726;44.732;10.550;2022-12-18T15:33:16;44.15;;;34.63;;
32236;SDS011;18726;44.732;10.550;2022-12-18T15:36:30;39.92;;;32.85;;
32236;SDS011;18726;44.732;10.550;2022-12-18T15:39:34;41.63;;;31.58;;
32236;SDS011;18726;44.732;10.550;2022-12-18T15:42:39;44.00;;;33.60;;
32236;SDS011;18726;44.732;10.550;2022-12-18T15:49:09;39.22;;;28.38;;
32236;SDS011;18726;44.732;10.550;2022-12-18T15:52:13;44.15;;;34.15;;
32236;SDS011;18726;44.732;10.550;2022-12-18T15:55:21;49.50;;;35.63;;
32236;SDS011;18726;44.732;10.550;2022-12-18T15:58:45;41.90;;;32.00;;
32236;SDS011;18726;44.732;10.550;2022-12-18T16:01:50;63.20;;;41.88;;
32236;SDS011;18726;44.732;10.550;2022-12-18T16:04:56;52.28;;;39.97;;
32236;SDS011;18726;44.732;10.550;2022-12-18T16:08:00;60.50;;;43.15;;
32236;SDS011;18726;44.732;10.550;2022-12-18T16:11:04;54.72;;;40.63;;
32236;SDS011;18726;44.732;10.550;2022-12-18T16:14:22;53.20;;;36.47;;
32236;SDS011;18726;44.732;10.550;2022-12-18T16:17:28;62.72;;;43.50;;
32236;SDS011;18726;44.732;10.550;2022-12-18T16:20:32;44.60;;;33.40;;
32236;SDS011;18726;44.732;10.550;2022-12-18T16:23:36;51.05;;;37.30;;
32236;SDS011;18726;44.732;10.550;2022-12-18T16:26:40;56.10;;;39.65;;
32236;SDS011;18726;44.732;10.550;2022-12-18T16:29:45;48.38;;;35.47;;
32236;SDS011;18726;44.732;10.550;2022-12-18T16:32:49;47.92;;;35.35;;
32236;SDS011;18726;44.732;10.550;2022-12-18T16:35:53;66.47;;;44.65;;
32236;SDS011;18726;44.732;10.550;2022-12-18T16:38:57;64.80;;;47.83;;
32236;SDS011;18726;44.732;10.550;2022-12-18T16:42:09;48.30;;;37.47;;
32236;SDS011;18726;44.732;10.550;2022-12-18T16:45:19;59.88;;;39.45;;
32236;SDS011;18726;44.732;10.550;2022-12-18T16:48:23;56.17;;;40.20;;
32236;SDS011;18726;44.732;10.550;2022-12-18T16:51:27;50.38;;;35.25;;
32236;SDS011;18726;44.732;10.550;2022-12-18T16:54:31;52.85;;;37.83;;
32236;SDS011;18726;44.732;10.550;2022-12-18T16:57:35;47.50;;;35.97;;
32236;SDS011;18726;44.732;10.550;2022-12-18T17:00:39;38.65;;;32.25;;
32236;SDS011;18726;44.732;10.550;2022-12-18T17:03:43;39.03;;;32.03;;
32236;SDS011;18726;44.732;10.550;2022-12-18T17:06:47;41.03;;;33.25;;
32236;SDS011;18726;44.732;10.550;2022-12-18T17:09:54;44.33;;;33.45;;
32236;SDS011;18726;44.732;10.550;2022-12-18T17:12:58;41.83;;;29.48;;
32236;SDS011;18726;44.732;10.550;2022-12-18T17:16:04;43.50;;;29.35;;
32236;SDS011;18726;44.732;10.550;2022-12-18T17:19:09;43.55;;;30.77;;
32236;SDS011;18726;44.732;10.550;2022-12-18T17:22:14;43.53;;;33.20;;
32236;SDS011;18726;44.732;10.550;2022-12-18T17:25:17;40.35;;;31.02;;
32236;SDS011;18726;44.732;10.550;2022-12-18T17:28:22;44.70;;;32.63;;
32236;SDS011;18726;44.732;10.550;2022-12-18T17:31:28;42.55;;;29.75;;
32236;SDS011;18726;44.732;10.550;2022-12-18T17:34:32;34.50;;;28.33;;
32236;SDS011;18726;44.732;10.550;2022-12-18T17:37:37;43.95;;;31.40;;
32236;SDS011;18726;44.732;10.550;2022-12-18T17:40:41;36.10;;;26.70;;
32236;SDS011;18726;44.732;10.550;2022-12-18T17:43:52;43.47;;;31.65;;
32236;SDS011;18726;44.732;10.550;2022-12-18T17:46:57;41.10;;;29.30;;
32236;SDS011;18726;44.732;10.550;2022-12-18T17:50:00;35.10;;;26.55;;
32236;SDS011;18726;44.732;10.550;2022-12-18T17:53:04;42.45;;;30.63;;
32236;SDS011;18726;44.732;10.550;2022-12-18T17:56:09;45.28;;;33.53;;
32236;SDS011;18726;44.732;10.550;2022-12-18T17:59:16;39.13;;;28.60;;
32236;SDS011;18726;44.732;10.550;2022-12-18T18:02:19;33.03;;;26.58;;
32236;SDS011;18726;44.732;10.550;2022-12-18T18:05:23;39.42;;;27.50;;
32236;SDS011;18726;44.732;10.550;2022-12-18T18:08:27;46.10;;;31.33;;
32236;SDS011;18726;44.732;10.550;2022-12-18T18:11:31;40.45;;;30.92;;
32236;SDS011;18726;44.732;10.550;2022-12-18T18:14:55;38.65;;;28.75;;
32236;SDS011;18726;44.732;10.550;2022-12-18T18:17:59;41.38;;;30.52;;
32236;SDS011;18726;44.732;10.550;2022-12-18T18:21:06;47.85;;;34.53;;
32236;SDS011;18726;44.732;10.550;2022-12-18T18:31:16;53.85;;;36.13;;
32236;SDS011;18726;44.732;10.550;2022-12-18T18:34:21;54.33;;;39.13;;
32236;SDS011;18726;44.732;10.550;2022-12-18T18:37:26;78.07;;;45.85;;
32236;SDS011;18726;44.732;10.550;2022-12-18T18:40:30;69.60;;;49.72;;
32236;SDS011;18726;44.732;10.550;2022-12-18T18:43:34;68.30;;;47.83;;
32236;SDS011;18726;44.732;10.550;2022-12-18T18:46:38;66.80;;;46.47;;
32236;SDS011;18726;44.732;10.550;2022-12-18T18:49:42;75.75;;;48.92;;
32236;SDS011;18726;44.732;10.550;2022-12-18T18:52:46;71.38;;;50.80;;
32236;SDS011;18726;44.732;10.550;2022-12-18T18:55:50;71.03;;;48.65;;
32236;SDS011;18726;44.732;10.550;2022-12-18T18:58:54;72.50;;;44.95;;
32236;SDS011;18726;44.732;10.550;2022-12-18T19:01:58;63.25;;;43.42;;
32236;SDS011;18726;44.732;10.550;2022-12-18T19:05:02;61.47;;;42.30;;
32236;SDS011;18726;44.732;10.550;2022-12-18T19:08:06;44.28;;;34.05;;
32236;SDS011;18726;44.732;10.550;2022-12-18T19:11:11;47.67;;;35.10;;
32236;SDS011;18726;44.732;10.550;2022-12-18T19:14:34;64.25;;;44.53;;
32236;SDS011;18726;44.732;10.550;2022-12-18T19:17:38;56.15;;;40.53;;
32236;SDS011;18726;44.732;10.550;2022-12-18T19:20:41;65.60;;;44.75;;
32236;SDS011;18726;44.732;10.550;2022-12-18T19:23:45;63.35;;;46.90;;
32236;SDS011;18726;44.732;10.550;2022-12-18T19:26:52;70.68;;;46.72;;
32236;SDS011;18726;44.732;10.550;2022-12-18T19:29:56;56.25;;;42.45;;
32236;SDS011;18726;44.732;10.550;2022-12-18T19:33:00;62.03;;;44.28;;
32236;SDS011;18726;44.732;10.550;2022-12-18T19:36:14;61.40;;;45.78;;
32236;SDS011;18726;44.732;10.550;2022-12-18T19:39:23;60.45;;;38.90;;
32236;SDS011;18726;44.732;10.550;2022-12-18T19:42:27;47.22;;;36.75;;
32236;SDS011;18726;44.732;10.550;2022-12-18T19:45:30;39.72;;;32.40;;
32236;SDS011;18726;44.732;10.550;2022-12-18T19:48:35;60.85;;;42.55;;
32236;SDS011;18726;44.732;10.550;2022-12-18T19:51:39;63.40;;;47.60;;
32236;SDS011;18726;44.732;10.550;2022-12-18T19:54:44;53.65;;;39.47;;
32236;SDS011;18726;44.732;10.550;2022-12-18T19:57:49;53.13;;;39.08;;
32236;SDS011;18726;44.732;10.550;2022-12-18T20:00:53;48.42;;;32.05;;
32236;SDS011;18726;44.732;10.550;2022-12-18T20:03:56;78.20;;;45.13;;
32236;SDS011;18726;44.732;10.550;2022-12-18T20:07:00;61.72;;;39.50;;
32236;SDS011;18726;44.732;10.550;2022-12-18T20:10:05;58.60;;;42.28;;
32236;SDS011;18726;44.732;10.550;2022-12-18T20:13:10;55.10;;;39.30;;
32236;SDS011;18726;44.732;10.550;2022-12-18T20:16:14;49.10;;;36.08;;
32236;SDS011;18726;44.732;10.550;2022-12-18T20:19:18;52.22;;;37.25;;
32236;SDS011;18726;44.732;10.550;2022-12-18T20:22:22;56.72;;;36.15;;
32236;SDS011;18726;44.732;10.550;2022-12-18T20:25:25;55.40;;;39.47;;
32236;SDS011;18726;44.732;10.550;2022-12-18T20:28:29;53.30;;;38.72;;
32236;SDS011;18726;44.732;10.550;2022-12-18T20:31:33;48.35;;;33.85;;
32236;SDS011;18726;44.732;10.550;2022-12-18T20:34:37;43.60;;;32.17;;
32236;SDS011;18726;44.732;10.550;2022-12-18T20:37:40;40.65;;;31.30;;
32236;SDS011;18726;44.732;10.550;2022-12-18T20:40:44;46.45;;;34.13;;
32236;SDS011;18726;44.732;10.550;2022-12-18T20:43:49;39.67;;;29.45;;
32236;SDS011;18726;44.732;10.550;2022-12-18T20:46:53;47.35;;;32.13;;